createdAt,value
2022-11-20T00:01:16.886Z,31.10
2022-11-20T00:03:44.405Z,32.17
2022-11-20T00:06:15.484Z,28.90
2022-11-20T00:08:42.982Z,27.90
2022-11-20T00:11:20.516Z,29.42
2022-11-20T00:13:50.773Z,34.10
2022-11-20T00:16:21.633Z,30.85
2022-11-20T00:18:48.765Z,34.30
2022-11-20T00:21:27.928Z,33.13
2022-11-20T00:23:57.279Z,31.98
2022-11-20T00:26:27.216Z,35.53
2022-11-20T00:29:02.004Z,31.70
2022-11-20T00:31:30.795Z,34.83
2022-11-20T00:33:58.015Z,32.33
2022-11-20T00:36:28.667Z,34.97
2022-11-20T00:38:58.636Z,32.47
2022-11-20T00:41:28.045Z,32.15
2022-11-20T00:43:56.777Z,33.75
2022-11-20T00:46:26.848Z,32.70
2022-11-20T00:48:54.014Z,35.50
2022-11-20T00:51:24.911Z,35.97
2022-11-20T00:53:52.611Z,36.92
2022-11-20T00:56:20.519Z,37.20
2022-11-20T00:58:49.284Z,37.38
2022-11-20T01:01:25.091Z,37.70
2022-11-20T01:03:55.064Z,34.03
2022-11-20T01:06:25.899Z,33.85
2022-11-20T01:08:57.512Z,38.13
2022-11-20T01:11:28.825Z,36.25
2022-11-20T01:13:58.197Z,35.00
2022-11-20T01:16:29.829Z,36.60
2022-11-20T01:19:01.361Z,38.63
2022-11-20T01:21:38.501Z,36.05
2022-11-20T01:24:08.868Z,37.05
2022-11-20T01:26:39.322Z,37.42
2022-11-20T01:29:08.227Z,35.03
2022-11-20T01:31:38.002Z,35.03
2022-11-20T01:34:17.746Z,36.35
2022-11-20T01:36:45.883Z,36.58
2022-11-20T01:39:21.414Z,34.83
2022-11-20T01:42:11.055Z,35.97
2022-11-20T01:44:54.435Z,34.65
2022-11-20T01:47:32.884Z,33.38
2022-11-20T01:50:29.890Z,35.17
2022-11-20T01:53:04.625Z,33.63
2022-11-20T01:55:42.531Z,35.85
2022-11-20T01:58:10.143Z,29.92
2022-11-20T02:00:37.354Z,37.45
2022-11-20T02:03:13.629Z,33.08
2022-11-20T02:05:51.333Z,39.15
2022-11-20T02:08:20.179Z,36.05
2022-11-20T02:10:47.105Z,34.15
2022-11-20T02:13:33.061Z,32.80
2022-11-20T02:16:00.541Z,34.10
2022-11-20T02:18:27.734Z,34.03
2022-11-20T02:21:09.700Z,32.33
2022-11-20T02:24:02.865Z,37.13
2022-11-20T02:26:34.120Z,33.83
2022-11-20T02:29:04.174Z,36.80
2022-11-20T02:31:43.112Z,36.30
2022-11-20T02:34:10.531Z,39.17
2022-11-20T02:36:41.411Z,36.30
2022-11-20T02:39:10.042Z,36.53
2022-11-20T02:41:38.678Z,36.70
2022-11-20T02:44:06.535Z,31.15
2022-11-20T02:46:34.309Z,40.08
2022-11-20T02:49:04.099Z,39.58
2022-11-20T02:51:31.653Z,35.97
2022-11-20T02:53:58.816Z,41.50
2022-11-20T02:56:26.564Z,38.20
2022-11-20T02:58:53.533Z,38.13
2022-11-20T03:01:20.522Z,37.15
2022-11-20T03:03:49.505Z,34.70
2022-11-20T03:06:19.107Z,41.10
2022-11-20T03:08:45.969Z,38.70
2022-11-20T03:11:12.873Z,38.97
2022-11-20T03:13:39.901Z,42.17
2022-11-20T03:16:14.786Z,35.50
2022-11-20T03:18:42.897Z,42.17
2022-11-20T03:21:12.255Z,35.15
2022-11-20T03:23:41.332Z,37.70
2022-11-20T03:26:21.884Z,42.28
2022-11-20T03:29:09.358Z,36.92
2022-11-20T03:31:42.183Z,43.28
2022-11-20T03:34:12.207Z,37.22
2022-11-20T03:36:41.490Z,35.92
2022-11-20T03:39:08.904Z,41.90
2022-11-20T03:41:42.273Z,41.00
2022-11-20T03:44:12.324Z,37.65
2022-11-20T03:46:40.118Z,40.72
2022-11-20T03:49:07.938Z,38.80
2022-11-20T03:51:37.372Z,36.30
2022-11-20T03:54:07.820Z,38.85
2022-11-20T03:56:38.333Z,37.58
2022-11-20T03:59:06.732Z,39.42
2022-11-20T04:01:42.126Z,38.00
2022-11-20T04:04:11.108Z,43.28
2022-11-20T04:06:39.654Z,40.15
2022-11-20T04:09:07.380Z,38.13
2022-11-20T04:11:37.816Z,41.00
2022-11-20T04:14:12.668Z,41.75
2022-11-20T04:16:39.804Z,41.03
2022-11-20T04:19:12.410Z,43.63
2022-11-20T04:21:39.519Z,38.38
2022-11-20T04:24:07.159Z,34.10
2022-11-20T04:26:35.353Z,37.95
2022-11-20T04:29:05.144Z,36.13
2022-11-20T04:31:35.388Z,38.70
2022-11-20T04:34:05.535Z,38.72
2022-11-20T04:36:33.743Z,38.35
2022-11-20T04:39:05.295Z,38.97
2022-11-20T04:41:37.076Z,42.40
2022-11-20T04:44:07.172Z,36.75
2022-11-20T04:46:43.857Z,39.50
2022-11-20T04:49:12.676Z,36.58
2022-11-20T04:51:39.666Z,35.25
2022-11-20T04:54:06.545Z,38.47
2022-11-20T04:56:33.434Z,35.63
2022-11-20T04:59:04.261Z,43.58
2022-11-20T05:01:31.754Z,40.83
2022-11-20T05:03:58.641Z,35.75
2022-11-20T05:06:26.066Z,33.28
2022-11-20T05:08:52.981Z,35.50
2022-11-20T05:11:22.037Z,33.72
2022-11-20T05:13:50.381Z,33.03
2022-11-20T05:16:22.283Z,36.85
2022-11-20T05:18:50.838Z,34.40
2022-11-20T05:21:18.599Z,38.78
2022-11-20T05:23:46.772Z,38.03
2022-11-20T05:26:22.389Z,40.05
2022-11-20T05:28:50.453Z,40.67
2022-11-20T05:31:26.683Z,38.47
2022-11-20T05:33:55.102Z,37.88
2022-11-20T05:36:21.982Z,40.35
2022-11-20T05:38:50.830Z,40.22
2022-11-20T05:41:21.404Z,39.72
2022-11-20T05:43:50.652Z,37.22
2022-11-20T05:46:27.701Z,40.75
2022-11-20T05:48:56.254Z,36.63
2022-11-20T05:51:23.497Z,40.55
2022-11-20T05:53:50.430Z,39.53
2022-11-20T05:56:21.495Z,38.85
2022-11-20T05:58:50.076Z,38.20
2022-11-20T06:01:22.981Z,33.28
2022-11-20T06:03:51.639Z,38.58
2022-11-20T06:06:19.973Z,39.03
2022-11-20T06:08:47.061Z,39.00
2022-11-20T06:11:15.995Z,36.05
2022-11-20T06:13:43.770Z,38.67
2022-11-20T06:16:12.600Z,37.38
2022-11-20T06:18:40.134Z,35.78
2022-11-20T06:21:13.718Z,42.35
2022-11-20T06:23:41.431Z,38.28
2022-11-20T06:26:15.774Z,38.15
2022-11-20T06:28:42.851Z,38.93
2022-11-20T06:31:15.209Z,36.85
2022-11-20T06:33:43.961Z,33.53
2022-11-20T06:36:13.463Z,34.55
2022-11-20T06:38:41.392Z,36.30
2022-11-20T06:41:13.222Z,43.13
2022-11-20T06:43:40.438Z,40.63
2022-11-20T06:46:07.423Z,37.80
2022-11-20T06:48:34.343Z,36.65
2022-11-20T06:51:05.757Z,39.50
2022-11-20T06:53:33.108Z,35.25
2022-11-20T06:56:00.430Z,39.05
2022-11-20T06:58:33.415Z,42.28
2022-11-20T07:01:08.170Z,37.90
2022-11-20T07:03:35.400Z,39.95
2022-11-20T07:06:03.088Z,37.55
2022-11-20T07:08:30.587Z,42.92
2022-11-20T07:11:04.528Z,42.03
2022-11-20T07:13:32.345Z,34.42
2022-11-20T07:16:50.908Z,39.00
2022-11-20T07:19:18.072Z,36.20
2022-11-20T07:21:45.110Z,40.75
2022-11-20T07:24:12.068Z,37.25
2022-11-20T07:26:39.500Z,39.65
2022-11-20T07:29:06.501Z,41.13
2022-11-20T07:31:33.394Z,41.67
2022-11-20T07:34:00.546Z,41.28
2022-11-20T07:36:27.428Z,39.53
2022-11-20T07:38:55.310Z,44.92
2022-11-20T07:41:22.214Z,38.58
2022-11-20T07:43:49.157Z,40.22
2022-11-20T07:46:16.048Z,40.45
2022-11-20T07:48:42.967Z,36.35
2022-11-20T07:51:09.864Z,41.70
2022-11-20T07:53:36.729Z,40.88
2022-11-20T07:56:04.287Z,62.42
2022-11-20T07:58:33.853Z,46.47
2022-11-20T08:01:08.941Z,43.88
2022-11-20T08:03:38.577Z,43.92
2022-11-20T08:06:06.379Z,51.85
2022-11-20T08:08:33.961Z,47.55
2022-11-20T08:11:21.369Z,47.50
2022-11-20T08:14:06.764Z,39.38
2022-11-20T08:16:33.603Z,149.88
2022-11-20T08:19:00.500Z,74.53
2022-11-20T08:21:27.412Z,97.53
2022-11-20T08:23:54.399Z,80.38
2022-11-20T08:26:22.537Z,63.88
2022-11-20T08:28:49.373Z,62.97
2022-11-20T08:31:16.342Z,52.38
2022-11-20T08:33:43.225Z,53.90
2022-11-20T08:36:10.196Z,49.13
2022-11-20T08:38:37.171Z,45.30
2022-11-20T08:41:24.906Z,48.03
2022-11-20T08:43:57.874Z,42.83
2022-11-20T08:46:28.624Z,49.20
2022-11-20T08:48:55.580Z,47.40
2022-11-20T08:51:22.487Z,40.67
2022-11-20T08:53:52.436Z,40.85
2022-11-20T08:56:19.438Z,46.17
2022-11-20T08:59:17.952Z,46.97
2022-11-20T09:01:33.523Z,40.00
2022-11-20T09:04:00.841Z,41.53
2022-11-20T09:06:27.948Z,45.28
2022-11-20T09:08:55.939Z,50.03
2022-11-20T09:11:23.378Z,47.47
2022-11-20T09:13:50.683Z,46.45
2022-11-20T09:16:17.595Z,39.83
2022-11-20T09:18:44.505Z,44.78
2022-11-20T09:21:14.753Z,43.33
2022-11-20T09:23:42.093Z,38.95
2022-11-20T09:26:13.063Z,41.15
2022-11-20T09:28:41.261Z,38.63
2022-11-20T09:31:11.057Z,43.42
2022-11-20T09:33:37.975Z,39.22
2022-11-20T09:36:05.358Z,36.65
2022-11-20T09:38:32.283Z,37.97
2022-11-20T09:41:07.714Z,39.67
2022-11-20T09:43:50.942Z,33.55
2022-11-20T09:46:23.570Z,30.77
2022-11-20T09:50:07.195Z,35.45
2022-11-20T09:53:21.201Z,33.08
2022-11-20T09:55:49.636Z,33.65
2022-11-20T09:58:36.565Z,32.13
2022-11-20T10:01:36.883Z,29.92
2022-11-20T10:04:21.789Z,29.98
2022-11-20T10:07:30.853Z,31.08
2022-11-20T10:09:57.492Z,27.80
2022-11-20T10:12:56.786Z,33.25
2022-11-20T10:15:35.724Z,30.38
2022-11-20T10:18:27.290Z,31.15
2022-11-20T10:21:24.356Z,31.05
2022-11-20T10:24:14.464Z,29.33
2022-11-20T10:26:58.347Z,29.75
2022-11-20T10:29:35.416Z,29.80
2022-11-20T10:32:18.541Z,28.00
2022-11-20T10:35:04.239Z,23.65
2022-11-20T10:37:35.283Z,21.52
2022-11-20T10:40:28.035Z,20.13
2022-11-20T10:43:05.687Z,21.60
2022-11-20T10:45:44.613Z,24.92
2022-11-20T10:48:25.375Z,23.90
2022-11-20T10:51:16.679Z,47.22
2022-11-20T10:54:59.261Z,25.20
2022-11-20T10:58:28.307Z,21.77
2022-11-20T11:01:17.256Z,19.27
2022-11-20T11:03:44.689Z,19.90
2022-11-20T11:06:40.492Z,18.85
2022-11-20T11:09:22.120Z,19.63
2022-11-20T11:11:49.145Z,26.25
2022-11-20T11:14:17.480Z,18.67
2022-11-20T11:16:56.635Z,20.58
2022-11-20T11:19:25.472Z,20.33
2022-11-20T11:21:57.708Z,15.77
2022-11-20T11:24:45.981Z,17.90
2022-11-20T11:27:18.558Z,17.02
2022-11-20T11:29:47.252Z,17.48
2022-11-20T11:32:18.337Z,20.45
2022-11-20T11:34:45.693Z,16.17
2022-11-20T11:37:20.485Z,20.88
2022-11-20T11:39:55.164Z,17.13
2022-11-20T11:42:32.173Z,17.77
2022-11-20T11:45:08.175Z,16.95
2022-11-20T11:47:47.996Z,20.73
2022-11-20T11:50:18.241Z,17.90
2022-11-20T11:53:17.124Z,16.05
2022-11-20T11:56:09.337Z,12.75
2022-11-20T11:58:52.717Z,12.32
2022-11-20T12:01:51.849Z,13.13
2022-11-20T12:04:56.070Z,13.32
2022-11-20T12:08:15.376Z,13.00
2022-11-20T12:10:59.401Z,13.73
2022-11-20T12:13:35.435Z,12.25
2022-11-20T12:16:04.807Z,15.35
2022-11-20T12:18:32.770Z,14.95
2022-11-20T12:21:11.940Z,12.93
2022-11-20T12:24:07.420Z,15.05
2022-11-20T12:27:01.457Z,15.60
2022-11-20T12:30:02.009Z,16.83
2022-11-20T12:32:47.939Z,13.68
2022-11-20T12:35:56.843Z,15.98
2022-11-20T12:38:57.718Z,14.95
2022-11-20T12:42:18.625Z,15.52
2022-11-20T12:45:13.001Z,14.93
2022-11-20T12:47:49.321Z,15.73
2022-11-20T12:51:20.047Z,13.98
2022-11-20T12:54:43.014Z,12.05
2022-11-20T12:57:12.752Z,14.07
2022-11-20T13:00:04.642Z,13.52
2022-11-20T13:03:23.928Z,13.30
2022-11-20T13:05:57.931Z,13.05
2022-11-20T13:08:30.455Z,13.70
2022-11-20T13:11:29.058Z,13.68
2022-11-20T13:14:03.411Z,13.88
2022-11-20T13:16:49.593Z,13.83
2022-11-20T13:19:18.947Z,13.45
2022-11-20T13:21:52.481Z,15.20
2022-11-20T13:24:27.041Z,11.93
2022-11-20T13:27:08.956Z,14.02
2022-11-20T13:29:38.876Z,13.95
2022-11-20T13:32:18.810Z,13.52
2022-11-20T13:35:03.294Z,12.27
2022-11-20T13:37:35.618Z,10.98
2022-11-20T13:40:08.664Z,9.73
2022-11-20T13:42:46.801Z,11.32
2022-11-20T13:45:30.106Z,13.73
2022-11-20T13:48:02.411Z,11.90
2022-11-20T13:50:37.790Z,12.75
2022-11-20T13:54:03.298Z,11.13
2022-11-20T13:56:51.553Z,12.50
2022-11-20T13:59:50.276Z,12.15
2022-11-20T14:02:20.708Z,14.05
2022-11-20T14:04:57.556Z,12.63
2022-11-20T14:07:43.523Z,12.10
2022-11-20T14:10:32.262Z,11.55
2022-11-20T14:13:10.814Z,9.55
2022-11-20T14:15:44.665Z,10.75
2022-11-20T14:18:22.813Z,13.35
2022-11-20T14:20:50.047Z,11.73
2022-11-20T14:23:30.591Z,11.07
2022-11-20T14:25:58.324Z,13.00
2022-11-20T14:28:32.528Z,12.05
2022-11-20T14:30:59.862Z,13.85
2022-11-20T14:33:28.574Z,13.05
2022-11-20T14:35:58.655Z,16.17
2022-11-20T14:38:33.457Z,17.52
2022-11-20T14:41:18.767Z,15.27
2022-11-20T14:43:59.596Z,16.73
2022-11-20T14:46:28.596Z,13.85
2022-11-20T14:48:58.707Z,16.45
2022-11-20T14:51:44.019Z,14.60
2022-11-20T14:54:20.348Z,14.05
2022-11-20T14:56:58.909Z,14.00
2022-11-20T14:59:35.330Z,14.05
2022-11-20T15:02:12.841Z,18.65
2022-11-20T15:05:00.305Z,16.75
2022-11-20T15:07:35.259Z,16.13
2022-11-20T15:10:08.409Z,15.93
2022-11-20T15:12:46.666Z,15.68
2022-11-20T15:15:20.312Z,14.20
2022-11-20T15:17:47.958Z,16.38
2022-11-20T15:20:18.492Z,13.57
2022-11-20T15:22:45.474Z,13.07
2022-11-20T15:25:18.890Z,18.83
2022-11-20T15:27:50.299Z,15.27
2022-11-20T15:30:20.810Z,18.83
2022-11-20T15:32:48.385Z,19.27
2022-11-20T15:35:16.696Z,19.30
2022-11-20T15:37:43.888Z,16.63
2022-11-20T15:40:11.853Z,18.20
2022-11-20T15:42:38.779Z,19.27
2022-11-20T15:45:29.262Z,16.67
2022-11-20T15:47:56.423Z,18.42
2022-11-20T15:50:28.056Z,17.58
2022-11-20T15:52:58.094Z,20.92
2022-11-20T15:55:25.681Z,19.15
2022-11-20T15:57:52.543Z,18.50
2022-11-20T16:00:23.529Z,19.55
2022-11-20T16:02:50.773Z,20.98
2022-11-20T16:05:19.740Z,17.88
2022-11-20T16:07:46.641Z,20.88
2022-11-20T16:10:13.548Z,20.92
2022-11-20T16:12:59.081Z,22.10
2022-11-20T16:15:44.628Z,22.52
2022-11-20T16:18:14.376Z,20.00
2022-11-20T16:20:41.283Z,22.52
2022-11-20T16:23:08.615Z,21.77
2022-11-20T16:25:35.621Z,26.13
2022-11-20T16:28:02.563Z,21.48
2022-11-20T16:30:29.526Z,27.45
2022-11-20T16:32:56.400Z,20.73
2022-11-20T16:35:23.251Z,23.98
2022-11-20T16:37:50.157Z,23.35
2022-11-20T16:40:17.136Z,26.30
2022-11-20T16:42:44.103Z,26.42
2022-11-20T16:45:11.624Z,26.38
2022-11-20T16:47:38.614Z,27.45
2022-11-20T16:50:06.684Z,26.67
2022-11-20T16:52:33.856Z,28.48
2022-11-20T16:55:01.021Z,23.67
2022-11-20T16:57:33.376Z,23.40
2022-11-20T17:00:02.481Z,25.98
2022-11-20T17:02:29.823Z,24.67
2022-11-20T17:04:56.733Z,24.73
2022-11-20T17:07:23.737Z,23.08
2022-11-20T17:09:50.669Z,23.73
2022-11-20T17:12:17.610Z,18.23
2022-11-20T17:14:44.536Z,17.52
2022-11-20T17:17:11.818Z,17.98
2022-11-20T17:19:38.845Z,18.08
2022-11-20T17:22:05.793Z,20.00
2022-11-20T17:24:32.848Z,19.95
2022-11-20T17:27:00.126Z,19.27
2022-11-20T17:29:27.151Z,20.40
2022-11-20T17:31:54.821Z,20.33
2022-11-20T17:34:22.309Z,18.05
2022-11-20T17:36:49.424Z,22.52
2022-11-20T17:39:17.968Z,17.83
2022-11-20T17:41:45.696Z,20.38
2022-11-20T17:44:13.231Z,20.10
2022-11-20T17:46:40.182Z,23.02
2022-11-20T17:49:07.534Z,19.55
2022-11-20T17:51:35.389Z,19.58
2022-11-20T17:54:07.308Z,21.58
2022-11-20T17:56:53.810Z,20.25
2022-11-20T17:59:20.987Z,18.33
2022-11-20T18:01:48.374Z,21.13
2022-11-20T18:04:16.755Z,21.50
2022-11-20T18:06:43.676Z,24.60
2022-11-20T18:09:11.326Z,19.58
2022-11-20T18:11:41.368Z,20.42
2022-11-20T18:14:32.652Z,20.20
2022-11-20T18:17:08.235Z,22.45
2022-11-20T18:19:51.577Z,20.55
2022-11-20T18:22:27.968Z,23.40
2022-11-20T18:24:54.866Z,20.10
2022-11-20T18:27:23.091Z,21.58
2022-11-20T18:29:51.934Z,22.92
2022-11-20T18:32:22.005Z,22.63
2022-11-20T18:34:49.104Z,23.50
2022-11-20T18:37:16.948Z,20.42
2022-11-20T18:39:44.322Z,20.05
2022-11-20T18:42:33.356Z,21.27
2022-11-20T18:45:02.319Z,25.48
2022-11-20T18:47:36.157Z,24.65
2022-11-20T18:50:05.382Z,23.60
2022-11-20T18:52:41.894Z,23.08
2022-11-20T18:55:11.367Z,21.55
2022-11-20T18:57:38.803Z,22.80
2022-11-20T19:00:09.718Z,22.02
2022-11-20T19:02:42.255Z,25.25
2022-11-20T19:05:12.585Z,24.27
2022-11-20T19:07:40.752Z,22.25
2022-11-20T19:10:08.591Z,25.38
2022-11-20T19:12:35.825Z,24.75
2022-11-20T19:15:03.534Z,25.25
2022-11-20T19:17:30.830Z,24.48
2022-11-20T19:19:58.026Z,26.08
2022-11-20T19:22:25.158Z,23.23
2022-11-20T19:24:52.336Z,23.70
2022-11-20T19:27:19.651Z,21.48
2022-11-20T19:29:46.818Z,22.55
2022-11-20T19:32:14.019Z,21.88
2022-11-20T19:34:41.650Z,23.60
2022-11-20T19:37:09.960Z,24.85
2022-11-20T19:39:37.738Z,23.42
2022-11-20T19:42:05.168Z,27.00
2022-11-20T19:44:33.138Z,21.25
2022-11-20T19:47:00.795Z,23.10
2022-11-20T19:49:28.010Z,25.60
2022-11-20T19:51:55.374Z,21.98
2022-11-20T19:54:22.671Z,23.98
2022-11-20T19:56:50.743Z,22.95
2022-11-20T19:59:18.071Z,21.48
2022-11-20T20:01:45.665Z,27.55
2022-11-20T20:04:12.997Z,27.38
2022-11-20T20:06:41.659Z,26.95
2022-11-20T20:09:12.225Z,26.25
2022-11-20T20:11:40.656Z,26.02
2022-11-20T20:14:14.640Z,25.67
2022-11-20T20:16:42.913Z,25.58
2022-11-20T20:19:15.337Z,26.73
2022-11-20T20:21:44.044Z,26.45
2022-11-20T20:24:12.215Z,25.77
2022-11-20T20:26:39.874Z,25.45
2022-11-20T20:29:07.327Z,27.20
2022-11-20T20:31:35.311Z,26.63
2022-11-20T20:34:05.384Z,29.83
2022-11-20T20:36:33.332Z,25.20
2022-11-20T20:39:02.564Z,28.83
2022-11-20T20:41:30.516Z,21.23
2022-11-20T20:44:16.412Z,25.23
2022-11-20T20:46:43.763Z,27.17
2022-11-20T20:49:10.908Z,25.35
2022-11-20T20:51:38.143Z,23.38
2022-11-20T20:54:05.351Z,23.00
2022-11-20T20:56:32.718Z,23.17
2022-11-20T20:58:59.658Z,29.02
2022-11-20T21:01:28.949Z,37.95
2022-11-20T21:03:57.227Z,31.25
2022-11-20T21:06:24.781Z,32.88
2022-11-20T21:08:51.916Z,31.13
2022-11-20T21:11:20.769Z,36.70
2022-11-20T21:13:48.874Z,32.50
2022-11-20T21:16:18.591Z,38.65
2022-11-20T21:18:45.552Z,38.55
2022-11-20T21:21:33.224Z,34.28
2022-11-20T21:24:00.397Z,38.17
2022-11-20T21:26:27.612Z,38.20
2022-11-20T21:28:56.139Z,34.85
2022-11-20T21:31:26.437Z,34.80
2022-11-20T21:33:56.207Z,28.27
2022-11-20T21:36:27.105Z,34.33
2022-11-20T21:38:55.648Z,31.80
2022-11-20T21:41:25.115Z,32.10
2022-11-20T21:44:23.499Z,35.42
2022-11-20T21:46:45.018Z,31.90
2022-11-20T21:49:12.662Z,30.80
2022-11-20T21:51:39.891Z,35.88
2022-11-20T21:54:06.859Z,23.50
2022-11-20T21:56:33.806Z,30.98
2022-11-20T21:59:00.831Z,31.63
2022-11-20T22:01:31.476Z,32.58
2022-11-20T22:04:02.157Z,30.27
2022-11-20T22:06:34.584Z,32.70
2022-11-20T22:09:03.009Z,28.10
2022-11-20T22:11:30.517Z,28.77
2022-11-20T22:14:16.380Z,31.55
2022-11-20T22:16:43.603Z,35.63
2022-11-20T22:19:10.545Z,35.10
2022-11-20T22:21:40.072Z,35.08
2022-11-20T22:24:08.284Z,38.70
2022-11-20T22:26:40.308Z,37.80
2022-11-20T22:29:08.338Z,38.85
2022-11-20T22:31:35.234Z,32.10
2022-11-20T22:34:02.869Z,32.67
2022-11-20T22:36:31.869Z,29.48
2022-11-20T22:38:58.883Z,36.97
2022-11-20T22:41:29.687Z,27.65
2022-11-20T22:44:03.787Z,31.65
2022-11-20T22:46:35.237Z,31.33
2022-11-20T22:49:06.657Z,29.67
2022-11-20T22:51:40.697Z,31.13
2022-11-20T22:54:10.227Z,32.53
2022-11-20T22:56:37.157Z,35.00
2022-11-20T22:59:04.534Z,32.67
2022-11-20T23:01:36.867Z,34.63
2022-11-20T23:04:09.176Z,32.53
2022-11-20T23:06:36.253Z,27.90
2022-11-20T23:09:06.310Z,25.85
2022-11-20T23:11:35.102Z,29.13
2022-11-20T23:14:06.913Z,36.45
2022-11-20T23:16:34.922Z,40.40
2022-11-20T23:19:14.576Z,37.30
2022-11-20T23:21:43.514Z,40.97
2022-11-20T23:24:11.765Z,40.92
2022-11-20T23:26:41.436Z,40.55
2022-11-20T23:29:08.559Z,44.17
2022-11-20T23:31:36.586Z,44.47
2022-11-20T23:34:04.181Z,41.72
2022-11-20T23:36:31.557Z,42.83
2022-11-20T23:38:58.467Z,40.70
2022-11-20T23:41:25.529Z,49.00
2022-11-20T23:43:53.692Z,41.38
2022-11-20T23:46:20.725Z,51.10
2022-11-20T23:48:47.569Z,48.47
2022-11-20T23:51:14.793Z,49.33
2022-11-20T23:53:42.353Z,53.42
2022-11-20T23:56:11.009Z,47.33
2022-11-20T23:58:39.055Z,45.72
